sensor_id;sensor_type;location;lat;lon;timestamp;P1;durP1;ratioP1;P2;durP2;ratioP2
49458;SDS011;35354;51.296;16.924;2023-02-28T00:00:46;119.78;;;44.63;;
49458;SDS011;35354;51.296;16.924;2023-02-28T00:03:12;31.75;;;16.23;;
49458;SDS011;35354;51.296;16.924;2023-02-28T00:05:37;91.95;;;37.75;;
49458;SDS011;35354;51.296;16.924;2023-02-28T00:08:02;58.83;;;26.55;;
49458;SDS011;35354;51.296;16.924;2023-02-28T00:10:28;66.70;;;32.65;;
49458;SDS011;35354;51.296;16.924;2023-02-28T00:12:58;59.15;;;29.17;;
49458;SDS011;35354;51.296;16.924;2023-02-28T00:15:25;40.42;;;22.33;;
49458;SDS011;35354;51.296;16.924;2023-02-28T00:17:51;37.10;;;18.42;;
49458;SDS011;35354;51.296;16.924;2023-02-28T00:20:17;33.35;;;18.42;;
49458;SDS011;35354;51.296;16.924;2023-02-28T00:22:47;33.45;;;17.73;;
49458;SDS011;35354;51.296;16.924;2023-02-28T00:25:15;53.72;;;26.75;;
49458;SDS011;35354;51.296;16.924;2023-02-28T00:27:42;43.97;;;22.30;;
49458;SDS011;35354;51.296;16.924;2023-02-28T00:30:10;46.40;;;26.70;;
49458;SDS011;35354;51.296;16.924;2023-02-28T00:32:37;71.35;;;37.65;;
49458;SDS011;35354;51.296;16.924;2023-02-28T00:35:03;530.58;;;185.07;;
49458;SDS011;35354;51.296;16.924;2023-02-28T00:37:28;325.67;;;109.88;;
49458;SDS011;35354;51.296;16.924;2023-02-28T00:39:54;170.98;;;58.28;;
49458;SDS011;35354;51.296;16.924;2023-02-28T00:42:19;147.52;;;54.38;;
49458;SDS011;35354;51.296;16.924;2023-02-28T00:44:44;95.43;;;39.70;;
49458;SDS011;35354;51.296;16.924;2023-02-28T00:47:10;86.05;;;37.13;;
49458;SDS011;35354;51.296;16.924;2023-02-28T00:49:35;79.80;;;34.88;;
49458;SDS011;35354;51.296;16.924;2023-02-28T00:52:00;70.95;;;29.90;;
49458;SDS011;35354;51.296;16.924;2023-02-28T00:54:25;43.72;;;21.67;;
49458;SDS011;35354;51.296;16.924;2023-02-28T00:56:51;130.98;;;53.10;;
49458;SDS011;35354;51.296;16.924;2023-02-28T00:59:17;45.05;;;21.40;;
49458;SDS011;35354;51.296;16.924;2023-02-28T01:01:43;36.05;;;19.55;;
49458;SDS011;35354;51.296;16.924;2023-02-28T01:04:10;34.75;;;18.85;;
49458;SDS011;35354;51.296;16.924;2023-02-28T01:06:36;37.60;;;20.10;;
49458;SDS011;35354;51.296;16.924;2023-02-28T01:09:02;38.00;;;21.35;;
49458;SDS011;35354;51.296;16.924;2023-02-28T01:11:29;42.92;;;22.92;;
49458;SDS011;35354;51.296;16.924;2023-02-28T01:13:54;34.20;;;19.27;;
49458;SDS011;35354;51.296;16.924;2023-02-28T01:16:20;30.48;;;17.23;;
49458;SDS011;35354;51.296;16.924;2023-02-28T01:18:45;31.95;;;17.70;;
49458;SDS011;35354;51.296;16.924;2023-02-28T01:21:12;30.48;;;16.48;;
49458;SDS011;35354;51.296;16.924;2023-02-28T01:23:39;30.63;;;18.05;;
49458;SDS011;35354;51.296;16.924;2023-02-28T01:26:12;33.30;;;16.90;;
49458;SDS011;35354;51.296;16.924;2023-02-28T01:28:42;35.85;;;19.00;;
49458;SDS011;35354;51.296;16.924;2023-02-28T01:31:08;32.13;;;19.13;;
49458;SDS011;35354;51.296;16.924;2023-02-28T01:33:34;33.80;;;18.55;;
49458;SDS011;35354;51.296;16.924;2023-02-28T01:36:00;37.17;;;19.65;;
49458;SDS011;35354;51.296;16.924;2023-02-28T01:38:28;34.55;;;18.70;;
49458;SDS011;35354;51.296;16.924;2023-02-28T01:40:54;33.40;;;17.63;;
49458;SDS011;35354;51.296;16.924;2023-02-28T01:43:21;29.15;;;17.58;;
49458;SDS011;35354;51.296;16.924;2023-02-28T01:45:52;41.80;;;20.58;;
49458;SDS011;35354;51.296;16.924;2023-02-28T01:48:19;37.05;;;18.33;;
49458;SDS011;35354;51.296;16.924;2023-02-28T01:50:47;44.65;;;26.25;;
49458;SDS011;35354;51.296;16.924;2023-02-28T01:53:15;48.90;;;27.85;;
49458;SDS011;35354;51.296;16.924;2023-02-28T01:55:46;44.08;;;23.20;;
49458;SDS011;35354;51.296;16.924;2023-02-28T01:58:14;53.33;;;23.52;;
49458;SDS011;35354;51.296;16.924;2023-02-28T02:00:40;61.47;;;29.17;;
49458;SDS011;35354;51.296;16.924;2023-02-28T02:03:11;63.50;;;32.30;;
49458;SDS011;35354;51.296;16.924;2023-02-28T02:05:39;60.25;;;29.42;;
49458;SDS011;35354;51.296;16.924;2023-02-28T02:08:06;64.82;;;31.13;;
49458;SDS011;35354;51.296;16.924;2023-02-28T02:26:34;42.97;;;23.15;;
49458;SDS011;35354;51.296;16.924;2023-02-28T02:31:47;40.85;;;22.30;;
49458;SDS011;35354;51.296;16.924;2023-02-28T02:34:34;44.47;;;22.13;;
49458;SDS011;35354;51.296;16.924;2023-02-28T02:40:34;67.07;;;30.20;;
49458;SDS011;35354;51.296;16.924;2023-02-28T02:45:49;42.28;;;25.50;;
49458;SDS011;35354;51.296;16.924;2023-02-28T02:48:23;46.78;;;24.02;;
49458;SDS011;35354;51.296;16.924;2023-02-28T02:50:54;42.95;;;23.75;;
49458;SDS011;35354;51.296;16.924;2023-02-28T02:53:24;44.10;;;23.27;;
49458;SDS011;35354;51.296;16.924;2023-02-28T02:55:55;44.30;;;22.10;;
49458;SDS011;35354;51.296;16.924;2023-02-28T02:58:25;44.80;;;22.58;;
49458;SDS011;35354;51.296;16.924;2023-02-28T03:00:56;48.90;;;24.80;;
49458;SDS011;35354;51.296;16.924;2023-02-28T03:03:24;48.58;;;22.90;;
49458;SDS011;35354;51.296;16.924;2023-02-28T03:05:57;46.10;;;25.20;;
49458;SDS011;35354;51.296;16.924;2023-02-28T03:08:25;55.38;;;29.33;;
49458;SDS011;35354;51.296;16.924;2023-02-28T03:10:52;45.72;;;25.38;;
49458;SDS011;35354;51.296;16.924;2023-02-28T03:24:06;50.50;;;24.63;;
49458;SDS011;35354;51.296;16.924;2023-02-28T03:26:36;44.35;;;21.95;;
49458;SDS011;35354;51.296;16.924;2023-02-28T03:31:39;43.10;;;24.88;;
49458;SDS011;35354;51.296;16.924;2023-02-28T03:34:23;84.50;;;51.95;;
49458;SDS011;35354;51.296;16.924;2023-02-28T03:36:55;63.60;;;38.22;;
49458;SDS011;35354;51.296;16.924;2023-02-28T03:39:28;68.55;;;40.03;;
49458;SDS011;35354;51.296;16.924;2023-02-28T03:42:00;72.10;;;36.03;;
49458;SDS011;35354;51.296;16.924;2023-02-28T03:55:05;42.65;;;22.52;;
49458;SDS011;35354;51.296;16.924;2023-02-28T03:57:39;59.00;;;31.60;;
49458;SDS011;35354;51.296;16.924;2023-02-28T04:00:25;90.13;;;53.33;;
49458;SDS011;35354;51.296;16.924;2023-02-28T04:02:56;58.85;;;34.28;;
49458;SDS011;35354;51.296;16.924;2023-02-28T04:05:21;57.25;;;35.15;;
49458;SDS011;35354;51.296;16.924;2023-02-28T04:07:47;60.25;;;35.25;;
49458;SDS011;35354;51.296;16.924;2023-02-28T04:10:13;61.38;;;35.60;;
49458;SDS011;35354;51.296;16.924;2023-02-28T04:12:40;49.63;;;30.08;;
49458;SDS011;35354;51.296;16.924;2023-02-28T04:15:06;58.38;;;34.55;;
49458;SDS011;35354;51.296;16.924;2023-02-28T04:17:32;60.72;;;36.35;;
49458;SDS011;35354;51.296;16.924;2023-02-28T04:19:57;87.50;;;50.53;;
49458;SDS011;35354;51.296;16.924;2023-02-28T04:22:22;55.00;;;33.58;;
49458;SDS011;35354;51.296;16.924;2023-02-28T04:24:51;80.70;;;43.15;;
49458;SDS011;35354;51.296;16.924;2023-02-28T04:27:18;99.75;;;54.60;;
49458;SDS011;35354;51.296;16.924;2023-02-28T04:29:44;56.83;;;32.95;;
49458;SDS011;35354;51.296;16.924;2023-02-28T04:32:09;43.72;;;23.95;;
49458;SDS011;35354;51.296;16.924;2023-02-28T04:34:35;53.10;;;28.40;;
49458;SDS011;35354;51.296;16.924;2023-02-28T04:37:00;78.53;;;42.67;;
49458;SDS011;35354;51.296;16.924;2023-02-28T04:39:27;76.68;;;43.05;;
49458;SDS011;35354;51.296;16.924;2023-02-28T04:41:53;68.78;;;38.50;;
49458;SDS011;35354;51.296;16.924;2023-02-28T04:44:18;58.33;;;33.58;;
49458;SDS011;35354;51.296;16.924;2023-02-28T04:46:45;43.65;;;25.88;;
49458;SDS011;35354;51.296;16.924;2023-02-28T04:49:13;55.13;;;29.15;;
49458;SDS011;35354;51.296;16.924;2023-02-28T04:51:38;60.42;;;34.42;;
49458;SDS011;35354;51.296;16.924;2023-02-28T04:54:04;138.57;;;73.63;;
49458;SDS011;35354;51.296;16.924;2023-02-28T04:56:29;94.18;;;52.65;;
49458;SDS011;35354;51.296;16.924;2023-02-28T04:58:55;68.18;;;34.83;;
49458;SDS011;35354;51.296;16.924;2023-02-28T05:03:47;84.55;;;46.72;;
49458;SDS011;35354;51.296;16.924;2023-02-28T05:06:14;132.77;;;77.15;;
49458;SDS011;35354;51.296;16.924;2023-02-28T05:08:40;86.22;;;49.67;;
49458;SDS011;35354;51.296;16.924;2023-02-28T05:11:06;102.15;;;56.75;;
49458;SDS011;35354;51.296;16.924;2023-02-28T05:13:37;98.45;;;57.90;;
49458;SDS011;35354;51.296;16.924;2023-02-28T05:16:02;85.25;;;49.10;;
49458;SDS011;35354;51.296;16.924;2023-02-28T05:18:28;88.35;;;50.33;;
49458;SDS011;35354;51.296;16.924;2023-02-28T05:20:53;88.00;;;50.28;;
49458;SDS011;35354;51.296;16.924;2023-02-28T05:23:18;84.57;;;50.15;;
49458;SDS011;35354;51.296;16.924;2023-02-28T05:25:46;85.97;;;47.80;;
49458;SDS011;35354;51.296;16.924;2023-02-28T05:28:12;73.15;;;42.35;;
49458;SDS011;35354;51.296;16.924;2023-02-28T05:30:37;77.20;;;44.60;;
49458;SDS011;35354;51.296;16.924;2023-02-28T05:33:03;137.13;;;77.38;;
49458;SDS011;35354;51.296;16.924;2023-02-28T05:35:28;99.68;;;52.33;;
49458;SDS011;35354;51.296;16.924;2023-02-28T05:37:53;67.72;;;39.65;;
49458;SDS011;35354;51.296;16.924;2023-02-28T05:40:19;109.50;;;56.95;;
49458;SDS011;35354;51.296;16.924;2023-02-28T05:42:47;102.47;;;56.47;;
49458;SDS011;35354;51.296;16.924;2023-02-28T05:45:12;64.90;;;37.17;;
49458;SDS011;35354;51.296;16.924;2023-02-28T05:47:37;99.28;;;54.22;;
49458;SDS011;35354;51.296;16.924;2023-02-28T05:50:03;98.35;;;59.30;;
49458;SDS011;35354;51.296;16.924;2023-02-28T05:52:30;73.65;;;40.67;;
49458;SDS011;35354;51.296;16.924;2023-02-28T05:54:55;77.60;;;43.58;;
49458;SDS011;35354;51.296;16.924;2023-02-28T05:57:21;85.75;;;46.28;;
49458;SDS011;35354;51.296;16.924;2023-02-28T05:59:47;104.80;;;54.58;;
49458;SDS011;35354;51.296;16.924;2023-02-28T06:02:13;92.10;;;48.33;;
49458;SDS011;35354;51.296;16.924;2023-02-28T06:04:40;84.78;;;44.58;;
49458;SDS011;35354;51.296;16.924;2023-02-28T06:07:06;71.50;;;38.20;;
49458;SDS011;35354;51.296;16.924;2023-02-28T06:09:33;66.03;;;35.30;;
49458;SDS011;35354;51.296;16.924;2023-02-28T06:11:59;66.20;;;36.03;;
49458;SDS011;35354;51.296;16.924;2023-02-28T06:14:25;70.30;;;38.05;;
49458;SDS011;35354;51.296;16.924;2023-02-28T06:16:50;68.55;;;35.28;;
49458;SDS011;35354;51.296;16.924;2023-02-28T06:19:16;61.65;;;33.60;;
49458;SDS011;35354;51.296;16.924;2023-02-28T06:21:42;81.57;;;43.50;;
49458;SDS011;35354;51.296;16.924;2023-02-28T06:24:07;89.13;;;53.15;;
49458;SDS011;35354;51.296;16.924;2023-02-28T06:26:33;72.32;;;39.67;;
49458;SDS011;35354;51.296;16.924;2023-02-28T06:28:58;64.25;;;34.40;;
49458;SDS011;35354;51.296;16.924;2023-02-28T06:31:25;96.40;;;54.13;;
49458;SDS011;35354;51.296;16.924;2023-02-28T06:33:51;103.20;;;57.42;;
49458;SDS011;35354;51.296;16.924;2023-02-28T06:36:17;94.47;;;50.88;;
49458;SDS011;35354;51.296;16.924;2023-02-28T06:38:43;91.03;;;48.03;;
49458;SDS011;35354;51.296;16.924;2023-02-28T06:41:09;324.73;;;138.02;;
49458;SDS011;35354;51.296;16.924;2023-02-28T06:43:39;132.35;;;68.20;;
49458;SDS011;35354;51.296;16.924;2023-02-28T06:46:06;111.68;;;56.70;;
49458;SDS011;35354;51.296;16.924;2023-02-28T06:48:34;156.07;;;75.38;;
49458;SDS011;35354;51.296;16.924;2023-02-28T06:53:28;66.63;;;38.75;;
49458;SDS011;35354;51.296;16.924;2023-02-28T06:55:53;73.00;;;40.28;;
49458;SDS011;35354;51.296;16.924;2023-02-28T06:58:19;42.72;;;24.75;;
49458;SDS011;35354;51.296;16.924;2023-02-28T07:00:44;40.58;;;24.02;;
49458;SDS011;35354;51.296;16.924;2023-02-28T07:03:11;46.10;;;26.85;;
49458;SDS011;35354;51.296;16.924;2023-02-28T07:05:38;45.28;;;26.08;;
49458;SDS011;35354;51.296;16.924;2023-02-28T07:08:04;46.00;;;25.35;;
49458;SDS011;35354;51.296;16.924;2023-02-28T07:10:33;48.45;;;26.38;;
49458;SDS011;35354;51.296;16.924;2023-02-28T07:12:59;69.72;;;34.35;;
49458;SDS011;35354;51.296;16.924;2023-02-28T07:15:25;57.63;;;30.90;;
49458;SDS011;35354;51.296;16.924;2023-02-28T07:17:50;340.23;;;157.38;;
49458;SDS011;35354;51.296;16.924;2023-02-28T07:20:16;63.10;;;31.60;;
49458;SDS011;35354;51.296;16.924;2023-02-28T07:22:42;93.55;;;44.45;;
49458;SDS011;35354;51.296;16.924;2023-02-28T07:25:08;327.92;;;127.65;;
49458;SDS011;35354;51.296;16.924;2023-02-28T07:27:33;134.32;;;59.45;;
49458;SDS011;35354;51.296;16.924;2023-02-28T07:29:59;172.75;;;72.38;;
49458;SDS011;35354;51.296;16.924;2023-02-28T07:32:26;60.08;;;30.13;;
49458;SDS011;35354;51.296;16.924;2023-02-28T07:34:52;71.07;;;37.72;;
49458;SDS011;35354;51.296;16.924;2023-02-28T07:37:17;55.92;;;30.15;;
49458;SDS011;35354;51.296;16.924;2023-02-28T07:39:43;111.15;;;51.15;;
49458;SDS011;35354;51.296;16.924;2023-02-28T07:42:08;88.50;;;45.03;;
49458;SDS011;35354;51.296;16.924;2023-02-28T07:44:36;117.32;;;55.08;;
49458;SDS011;35354;51.296;16.924;2023-02-28T07:47:05;101.80;;;53.13;;
49458;SDS011;35354;51.296;16.924;2023-02-28T07:49:35;144.63;;;69.82;;
49458;SDS011;35354;51.296;16.924;2023-02-28T07:52:02;77.25;;;38.90;;
49458;SDS011;35354;51.296;16.924;2023-02-28T07:54:29;44.78;;;25.10;;
49458;SDS011;35354;51.296;16.924;2023-02-28T07:56:54;45.70;;;26.63;;
49458;SDS011;35354;51.296;16.924;2023-02-28T07:59:19;47.55;;;28.17;;
49458;SDS011;35354;51.296;16.924;2023-02-28T08:01:45;102.22;;;52.28;;
49458;SDS011;35354;51.296;16.924;2023-02-28T08:04:10;60.05;;;33.40;;
49458;SDS011;35354;51.296;16.924;2023-02-28T08:06:35;64.80;;;35.20;;
49458;SDS011;35354;51.296;16.924;2023-02-28T08:09:01;67.63;;;34.63;;
49458;SDS011;35354;51.296;16.924;2023-02-28T08:11:26;45.35;;;24.58;;
49458;SDS011;35354;51.296;16.924;2023-02-28T08:13:51;45.25;;;25.67;;
49458;SDS011;35354;51.296;16.924;2023-02-28T08:16:17;50.83;;;28.73;;
49458;SDS011;35354;51.296;16.924;2023-02-28T08:18:47;66.35;;;37.53;;
49458;SDS011;35354;51.296;16.924;2023-02-28T08:21:15;41.75;;;25.60;;
49458;SDS011;35354;51.296;16.924;2023-02-28T08:23:41;38.67;;;23.70;;
49458;SDS011;35354;51.296;16.924;2023-02-28T08:26:06;35.08;;;20.25;;
49458;SDS011;35354;51.296;16.924;2023-02-28T08:28:31;33.55;;;21.02;;
49458;SDS011;35354;51.296;16.924;2023-02-28T08:30:57;28.88;;;18.00;;
49458;SDS011;35354;51.296;16.924;2023-02-28T08:33:23;53.63;;;31.33;;
49458;SDS011;35354;51.296;16.924;2023-02-28T08:35:52;56.35;;;32.20;;
49458;SDS011;35354;51.296;16.924;2023-02-28T08:38:19;34.08;;;19.73;;
49458;SDS011;35354;51.296;16.924;2023-02-28T08:40:44;26.35;;;17.75;;
49458;SDS011;35354;51.296;16.924;2023-02-28T08:43:09;29.90;;;18.20;;
49458;SDS011;35354;51.296;16.924;2023-02-28T08:45:35;36.55;;;16.10;;
49458;SDS011;35354;51.296;16.924;2023-02-28T08:48:00;26.08;;;12.45;;
49458;SDS011;35354;51.296;16.924;2023-02-28T08:50:25;39.20;;;18.98;;
49458;SDS011;35354;51.296;16.924;2023-02-28T08:52:51;14.95;;;9.35;;
49458;SDS011;35354;51.296;16.924;2023-02-28T08:55:16;28.75;;;18.35;;
49458;SDS011;35354;51.296;16.924;2023-02-28T08:57:41;20.52;;;12.80;;
49458;SDS011;35354;51.296;16.924;2023-02-28T09:00:07;65.00;;;31.90;;
49458;SDS011;35354;51.296;16.924;2023-02-28T09:02:33;20.77;;;12.80;;
49458;SDS011;35354;51.296;16.924;2023-02-28T09:04:58;25.35;;;15.02;;
49458;SDS011;35354;51.296;16.924;2023-02-28T09:07:24;32.35;;;18.42;;
49458;SDS011;35354;51.296;16.924;2023-02-28T09:09:50;24.83;;;15.23;;
49458;SDS011;35354;51.296;16.924;2023-02-28T09:12:19;30.08;;;16.55;;
49458;SDS011;35354;51.296;16.924;2023-02-28T09:14:48;27.35;;;17.10;;
49458;SDS011;35354;51.296;16.924;2023-02-28T09:17:14;33.88;;;18.90;;
49458;SDS011;35354;51.296;16.924;2023-02-28T09:19:40;31.85;;;14.82;;
49458;SDS011;35354;51.296;16.924;2023-02-28T09:22:05;28.27;;;16.55;;
49458;SDS011;35354;51.296;16.924;2023-02-28T09:24:30;19.20;;;11.75;;
49458;SDS011;35354;51.296;16.924;2023-02-28T09:26:56;17.70;;;10.35;;
49458;SDS011;35354;51.296;16.924;2023-02-28T09:29:22;23.23;;;14.35;;
49458;SDS011;35354;51.296;16.924;2023-02-28T09:31:47;20.00;;;12.10;;
49458;SDS011;35354;51.296;16.924;2023-02-28T09:34:13;24.45;;;12.23;;
49458;SDS011;35354;51.296;16.924;2023-02-28T09:36:38;19.45;;;11.27;;
49458;SDS011;35354;51.296;16.924;2023-02-28T09:39:04;16.40;;;10.57;;
49458;SDS011;35354;51.296;16.924;2023-02-28T09:41:31;15.98;;;10.20;;
49458;SDS011;35354;51.296;16.924;2023-02-28T09:44:13;16.25;;;11.55;;
49458;SDS011;35354;51.296;16.924;2023-02-28T09:46:46;26.55;;;13.00;;
49458;SDS011;35354;51.296;16.924;2023-02-28T09:49:19;12.32;;;7.47;;
49458;SDS011;35354;51.296;16.924;2023-02-28T09:54:22;12.32;;;7.68;;
49458;SDS011;35354;51.296;16.924;2023-02-28T09:56:50;18.92;;;9.85;;
49458;SDS011;35354;51.296;16.924;2023-02-28T10:04:52;14.45;;;8.95;;
49458;SDS011;35354;51.296;16.924;2023-02-28T10:07:28;27.42;;;12.43;;
49458;SDS011;35354;51.296;16.924;2023-02-28T10:09:58;17.13;;;10.57;;
49458;SDS011;35354;51.296;16.924;2023-02-28T10:12:27;17.85;;;11.38;;
49458;SDS011;35354;51.296;16.924;2023-02-28T10:14:55;21.95;;;11.82;;
49458;SDS011;35354;51.296;16.924;2023-02-28T10:17:25;19.67;;;11.73;;
49458;SDS011;35354;51.296;16.924;2023-02-28T10:19:58;18.42;;;12.18;;
49458;SDS011;35354;51.296;16.924;2023-02-28T10:25:21;28.88;;;14.27;;
49458;SDS011;35354;51.296;16.924;2023-02-28T10:28:04;57.30;;;22.88;;
49458;SDS011;35354;51.296;16.924;2023-02-28T10:30:30;54.88;;;22.45;;
49458;SDS011;35354;51.296;16.924;2023-02-28T10:32:56;32.08;;;17.80;;
49458;SDS011;35354;51.296;16.924;2023-02-28T10:35:22;29.90;;;18.40;;
49458;SDS011;35354;51.296;16.924;2023-02-28T10:37:53;24.83;;;17.42;;
49458;SDS011;35354;51.296;16.924;2023-02-28T10:45:19;21.52;;;13.80;;
49458;SDS011;35354;51.296;16.924;2023-02-28T10:53:30;23.67;;;12.57;;
49458;SDS011;35354;51.296;16.924;2023-02-28T10:56:23;22.35;;;12.48;;
49458;SDS011;35354;51.296;16.924;2023-02-28T11:03:48;23.90;;;15.07;;
49458;SDS011;35354;51.296;16.924;2023-02-28T11:06:18;23.58;;;13.27;;
49458;SDS011;35354;51.296;16.924;2023-02-28T11:08:55;25.75;;;15.05;;
49458;SDS011;35354;51.296;16.924;2023-02-28T11:11:24;25.27;;;14.85;;
49458;SDS011;35354;51.296;16.924;2023-02-28T11:13:53;19.58;;;13.13;;
49458;SDS011;35354;51.296;16.924;2023-02-28T11:16:21;19.80;;;11.68;;
49458;SDS011;35354;51.296;16.924;2023-02-28T11:18:56;19.42;;;12.32;;
49458;SDS011;35354;51.296;16.924;2023-02-28T11:21:30;23.20;;;12.63;;
49458;SDS011;35354;51.296;16.924;2023-02-28T11:24:05;22.08;;;12.70;;
49458;SDS011;35354;51.296;16.924;2023-02-28T11:26:45;24.52;;;13.18;;
49458;SDS011;35354;51.296;16.924;2023-02-28T11:29:23;20.67;;;13.05;;
49458;SDS011;35354;51.296;16.924;2023-02-28T11:32:01;21.63;;;14.27;;
49458;SDS011;35354;51.296;16.924;2023-02-28T11:34:29;23.80;;;14.25;;
49458;SDS011;35354;51.296;16.924;2023-02-28T11:36:56;17.67;;;11.50;;
49458;SDS011;35354;51.296;16.924;2023-02-28T11:39:24;19.25;;;11.82;;
49458;SDS011;35354;51.296;16.924;2023-02-28T11:48:00;22.88;;;12.45;;
49458;SDS011;35354;51.296;16.924;2023-02-28T11:59:04;21.85;;;13.25;;
49458;SDS011;35354;51.296;16.924;2023-02-28T12:10:09;24.58;;;15.73;;
49458;SDS011;35354;51.296;16.924;2023-02-28T12:17:52;23.48;;;14.20;;
49458;SDS011;35354;51.296;16.924;2023-02-28T12:23:10;24.95;;;15.25;;
49458;SDS011;35354;51.296;16.924;2023-02-28T12:28:31;21.88;;;14.18;;
49458;SDS011;35354;51.296;16.924;2023-02-28T12:31:04;22.35;;;15.20;;
49458;SDS011;35354;51.296;16.924;2023-02-28T12:33:39;33.17;;;19.38;;
49458;SDS011;35354;51.296;16.924;2023-02-28T12:36:10;24.58;;;14.55;;
49458;SDS011;35354;51.296;16.924;2023-02-28T12:38:44;22.08;;;13.52;;
49458;SDS011;35354;51.296;16.924;2023-02-28T12:41:19;24.08;;;14.98;;
49458;SDS011;35354;51.296;16.924;2023-02-28T12:44:09;21.52;;;13.85;;
49458;SDS011;35354;51.296;16.924;2023-02-28T12:46:43;27.95;;;14.93;;
49458;SDS011;35354;51.296;16.924;2023-02-28T12:49:16;25.65;;;16.83;;
49458;SDS011;35354;51.296;16.924;2023-02-28T12:51:46;29.92;;;17.17;;
49458;SDS011;35354;51.296;16.924;2023-02-28T12:56:48;27.75;;;14.48;;
49458;SDS011;35354;51.296;16.924;2023-02-28T13:05:19;23.92;;;14.90;;
49458;SDS011;35354;51.296;16.924;2023-02-28T13:10:47;26.02;;;15.18;;
49458;SDS011;35354;51.296;16.924;2023-02-28T13:13:21;22.95;;;14.50;;
49458;SDS011;35354;51.296;16.924;2023-02-28T13:16:04;19.77;;;13.68;;
49458;SDS011;35354;51.296;16.924;2023-02-28T13:18:39;20.10;;;14.02;;
49458;SDS011;35354;51.296;16.924;2023-02-28T13:21:08;21.73;;;14.35;;
49458;SDS011;35354;51.296;16.924;2023-02-28T13:34:34;42.17;;;22.15;;
49458;SDS011;35354;51.296;16.924;2023-02-28T13:42:37;29.67;;;18.20;;
49458;SDS011;35354;51.296;16.924;2023-02-28T13:48:00;20.90;;;13.88;;
49458;SDS011;35354;51.296;16.924;2023-02-28T13:58:49;32.95;;;18.20;;
49458;SDS011;35354;51.296;16.924;2023-02-28T14:07:02;29.13;;;16.70;;
49458;SDS011;35354;51.296;16.924;2023-02-28T14:09:32;27.33;;;16.05;;
49458;SDS011;35354;51.296;16.924;2023-02-28T14:15:03;28.08;;;15.52;;
49458;SDS011;35354;51.296;16.924;2023-02-28T14:17:30;22.08;;;13.75;;
49458;SDS011;35354;51.296;16.924;2023-02-28T14:19:56;22.30;;;14.43;;
49458;SDS011;35354;51.296;16.924;2023-02-28T14:28:09;26.65;;;15.02;;
49458;SDS011;35354;51.296;16.924;2023-02-28T14:36:33;33.65;;;20.98;;
49458;SDS011;35354;51.296;16.924;2023-02-28T14:39:04;33.10;;;19.50;;
49458;SDS011;35354;51.296;16.924;2023-02-28T14:41:33;27.52;;;17.27;;
49458;SDS011;35354;51.296;16.924;2023-02-28T14:46:50;39.45;;;27.42;;
49458;SDS011;35354;51.296;16.924;2023-02-28T14:52:14;20.23;;;12.45;;
49458;SDS011;35354;51.296;16.924;2023-02-28T14:54:44;20.25;;;13.20;;
49458;SDS011;35354;51.296;16.924;2023-02-28T14:57:28;44.75;;;32.78;;
49458;SDS011;35354;51.296;16.924;2023-02-28T14:59:58;36.75;;;20.20;;
49458;SDS011;35354;51.296;16.924;2023-02-28T15:02:29;27.17;;;18.42;;
49458;SDS011;35354;51.296;16.924;2023-02-28T15:04:57;33.67;;;23.40;;
49458;SDS011;35354;51.296;16.924;2023-02-28T15:07:34;28.40;;;18.70;;
49458;SDS011;35354;51.296;16.924;2023-02-28T15:12:55;33.33;;;19.08;;
49458;SDS011;35354;51.296;16.924;2023-02-28T15:15:25;44.67;;;26.38;;
49458;SDS011;35354;51.296;16.924;2023-02-28T15:17:54;37.10;;;22.33;;
49458;SDS011;35354;51.296;16.924;2023-02-28T15:20:22;59.17;;;32.42;;
49458;SDS011;35354;51.296;16.924;2023-02-28T15:22:49;44.38;;;25.55;;
49458;SDS011;35354;51.296;16.924;2023-02-28T15:25:19;24.33;;;15.70;;
49458;SDS011;35354;51.296;16.924;2023-02-28T15:27:50;27.80;;;18.25;;
49458;SDS011;35354;51.296;16.924;2023-02-28T15:35:36;58.95;;;35.47;;
49458;SDS011;35354;51.296;16.924;2023-02-28T15:38:18;32.53;;;23.30;;
49458;SDS011;35354;51.296;16.924;2023-02-28T15:40:55;47.90;;;30.52;;
49458;SDS011;35354;51.296;16.924;2023-02-28T15:45:50;28.10;;;19.98;;
49458;SDS011;35354;51.296;16.924;2023-02-28T15:50:49;47.13;;;30.08;;
49458;SDS011;35354;51.296;16.924;2023-02-28T15:53:47;48.70;;;31.98;;
49458;SDS011;35354;51.296;16.924;2023-02-28T15:59:13;27.25;;;20.83;;
49458;SDS011;35354;51.296;16.924;2023-02-28T16:01:42;46.70;;;31.88;;
49458;SDS011;35354;51.296;16.924;2023-02-28T16:04:14;53.22;;;36.20;;
49458;SDS011;35354;51.296;16.924;2023-02-28T16:06:45;57.53;;;37.78;;
49458;SDS011;35354;51.296;16.924;2023-02-28T16:09:12;67.43;;;41.58;;
49458;SDS011;35354;51.296;16.924;2023-02-28T16:11:43;44.20;;;29.48;;
49458;SDS011;35354;51.296;16.924;2023-02-28T16:14:13;36.10;;;25.13;;
49458;SDS011;35354;51.296;16.924;2023-02-28T16:17:03;34.65;;;21.98;;
49458;SDS011;35354;51.296;16.924;2023-02-28T16:19:31;29.65;;;21.48;;
49458;SDS011;35354;51.296;16.924;2023-02-28T16:21:57;32.60;;;21.63;;
49458;SDS011;35354;51.296;16.924;2023-02-28T16:24:22;33.72;;;23.63;;
49458;SDS011;35354;51.296;16.924;2023-02-28T16:26:48;43.95;;;30.85;;
49458;SDS011;35354;51.296;16.924;2023-02-28T16:29:26;38.80;;;25.40;;
49458;SDS011;35354;51.296;16.924;2023-02-28T16:31:56;41.45;;;26.95;;
49458;SDS011;35354;51.296;16.924;2023-02-28T16:34:22;64.00;;;44.08;;
49458;SDS011;35354;51.296;16.924;2023-02-28T16:36:48;71.28;;;39.85;;
49458;SDS011;35354;51.296;16.924;2023-02-28T16:39:13;78.72;;;45.53;;
49458;SDS011;35354;51.296;16.924;2023-02-28T16:41:41;177.48;;;93.60;;
49458;SDS011;35354;51.296;16.924;2023-02-28T16:44:10;153.80;;;79.28;;
49458;SDS011;35354;51.296;16.924;2023-02-28T16:46:39;107.85;;;67.63;;
49458;SDS011;35354;51.296;16.924;2023-02-28T16:49:05;69.03;;;50.25;;
49458;SDS011;35354;51.296;16.924;2023-02-28T16:51:36;59.20;;;42.75;;
49458;SDS011;35354;51.296;16.924;2023-02-28T16:54:01;50.33;;;34.63;;
49458;SDS011;35354;51.296;16.924;2023-02-28T16:56:27;58.65;;;38.70;;
49458;SDS011;35354;51.296;16.924;2023-02-28T16:58:52;52.03;;;33.78;;
49458;SDS011;35354;51.296;16.924;2023-02-28T17:01:22;60.35;;;39.08;;
49458;SDS011;35354;51.296;16.924;2023-02-28T17:03:48;69.53;;;45.05;;
49458;SDS011;35354;51.296;16.924;2023-02-28T17:06:21;108.22;;;64.82;;
49458;SDS011;35354;51.296;16.924;2023-02-28T17:08:49;89.13;;;58.60;;
49458;SDS011;35354;51.296;16.924;2023-02-28T17:11:15;114.35;;;81.72;;
49458;SDS011;35354;51.296;16.924;2023-02-28T17:13:41;92.13;;;63.08;;
49458;SDS011;35354;51.296;16.924;2023-02-28T17:16:13;86.15;;;55.67;;
49458;SDS011;35354;51.296;16.924;2023-02-28T17:19:01;64.07;;;37.88;;
49458;SDS011;35354;51.296;16.924;2023-02-28T17:21:29;69.22;;;42.95;;
49458;SDS011;35354;51.296;16.924;2023-02-28T17:23:55;59.33;;;37.45;;
49458;SDS011;35354;51.296;16.924;2023-02-28T17:26:21;53.28;;;34.28;;
49458;SDS011;35354;51.296;16.924;2023-02-28T17:28:49;67.85;;;42.53;;
49458;SDS011;35354;51.296;16.924;2023-02-28T17:31:15;53.15;;;32.65;;